sensor_id;sensor_type;location;lat;lon;timestamp;pressure;altitude;pressure_sealevel;temperature;humidity
37078;BME280;22989;55.998;37.212;2023-11-22T00:00:52;42430.09;;;-145.39;52.87
37078;BME280;22989;55.998;37.212;2023-11-22T00:03:18;42441.81;;;-145.39;52.93
37078;BME280;22989;55.998;37.212;2023-11-22T00:05:44;42441.81;;;-145.39;52.70
37078;BME280;22989;55.998;37.212;2023-11-22T00:08:10;42418.38;;;-145.39;52.96
37078;BME280;22989;55.998;37.212;2023-11-22T00:10:36;42439.84;;;-145.39;52.75
37078;BME280;22989;55.998;37.212;2023-11-22T00:13:02;42449.63;;;-145.39;52.93
37078;BME280;22989;55.998;37.212;2023-11-22T00:15:28;42418.38;;;-145.39;52.73
37078;BME280;22989;55.998;37.212;2023-11-22T00:17:53;42449.63;;;-145.39;53.06
37078;BME280;22989;55.998;37.212;2023-11-22T00:20:19;42365.66;;;-145.39;53.00
37078;BME280;22989;55.998;37.212;2023-11-22T00:22:46;42439.84;;;-145.39;52.94
37078;BME280;22989;55.998;37.212;2023-11-22T00:25:12;42426.19;;;-145.39;52.81
37078;BME280;22989;55.998;37.212;2023-11-22T00:27:39;42455.47;;;-145.39;52.73
37078;BME280;22989;55.998;37.212;2023-11-22T00:30:05;42428.13;;;-145.39;52.71
37078;BME280;22989;55.998;37.212;2023-11-22T00:32:31;42447.66;;;-145.39;52.85
37078;BME280;22989;55.998;37.212;2023-11-22T00:34:57;42422.28;;;-145.39;52.66
37078;BME280;22989;55.998;37.212;2023-11-22T00:37:23;42400.81;;;-145.39;52.63
37078;BME280;22989;55.998;37.212;2023-11-22T00:39:48;42473.03;;;-145.39;52.66
37078;BME280;22989;55.998;37.212;2023-11-22T00:42:14;42420.34;;;-145.39;52.84
37078;BME280;22989;55.998;37.212;2023-11-22T00:44:40;42408.63;;;-145.39;52.77
37078;BME280;22989;55.998;37.212;2023-11-22T00:47:06;42441.81;;;-145.39;52.87
37078;BME280;22989;55.998;37.212;2023-11-22T00:49:32;42414.47;;;-145.39;52.92
37078;BME280;22989;55.998;37.212;2023-11-22T00:51:58;42455.47;;;-145.39;52.74
37078;BME280;22989;55.998;37.212;2023-11-22T00:54:24;42453.53;;;-145.39;52.58
37078;BME280;22989;55.998;37.212;2023-11-22T00:56:51;42459.38;;;-145.39;52.86
37078;BME280;22989;55.998;37.212;2023-11-22T00:59:17;42420.34;;;-145.39;52.91
37078;BME280;22989;55.998;37.212;2023-11-22T01:01:45;42443.75;;;-145.39;52.96
37078;BME280;22989;55.998;37.212;2023-11-22T01:04:10;42441.81;;;-145.39;52.95
37078;BME280;22989;55.998;37.212;2023-11-22T01:06:37;42424.22;;;-145.39;52.87
37078;BME280;22989;55.998;37.212;2023-11-22T01:09:03;42426.19;;;-145.39;52.92
37078;BME280;22989;55.998;37.212;2023-11-22T01:11:29;42449.63;;;-145.39;52.87
37078;BME280;22989;55.998;37.212;2023-11-22T01:13:55;42439.84;;;-145.39;52.77
37078;BME280;22989;55.998;37.212;2023-11-22T01:16:20;42439.84;;;-145.39;52.73
37078;BME280;22989;55.998;37.212;2023-11-22T01:18:46;42428.13;;;-145.39;52.44
37078;BME280;22989;55.998;37.212;2023-11-22T01:21:12;42451.56;;;-145.39;52.59
37078;BME280;22989;55.998;37.212;2023-11-22T01:23:38;42441.81;;;-145.39;52.78
37078;BME280;22989;55.998;37.212;2023-11-22T01:26:04;42420.34;;;-145.39;52.78
37078;BME280;22989;55.998;37.212;2023-11-22T01:28:31;42443.75;;;-145.39;52.73
37078;BME280;22989;55.998;37.212;2023-11-22T01:31:00;42453.53;;;-145.39;52.51
37078;BME280;22989;55.998;37.212;2023-11-22T01:33:27;42455.47;;;-145.39;52.56
37078;BME280;22989;55.998;37.212;2023-11-22T01:35:53;42459.38;;;-145.39;52.51
37078;BME280;22989;55.998;37.212;2023-11-22T01:38:19;42441.81;;;-145.39;52.65
37078;BME280;22989;55.998;37.212;2023-11-22T01:40:45;42457.44;;;-145.39;52.65
37078;BME280;22989;55.998;37.212;2023-11-22T01:43:16;42453.53;;;-145.39;52.38
37078;BME280;22989;55.998;37.212;2023-11-22T01:45:42;42445.72;;;-145.39;52.52
37078;BME280;22989;55.998;37.212;2023-11-22T01:48:10;42426.19;;;-145.39;52.52
37078;BME280;22989;55.998;37.212;2023-11-22T01:50:40;42435.94;;;-145.39;52.55
37078;BME280;22989;55.998;37.212;2023-11-22T01:53:08;42437.91;;;-145.39;52.33
37078;BME280;22989;55.998;37.212;2023-11-22T01:55:36;42443.75;;;-145.39;52.43
37078;BME280;22989;55.998;37.212;2023-11-22T01:58:02;42449.63;;;-145.39;52.44
37078;BME280;22989;55.998;37.212;2023-11-22T02:00:36;42451.56;;;-145.39;52.25
37078;BME280;22989;55.998;37.212;2023-11-22T02:03:06;42486.72;;;-145.39;52.35
37078;BME280;22989;55.998;37.212;2023-11-22T02:05:32;42459.38;;;-145.39;52.23
37078;BME280;22989;55.998;37.212;2023-11-22T02:07:59;42426.19;;;-145.39;52.13
37078;BME280;22989;55.998;37.212;2023-11-22T02:10:25;42441.81;;;-145.39;52.15
37078;BME280;22989;55.998;37.212;2023-11-22T02:12:51;42469.16;;;-145.39;52.34
37078;BME280;22989;55.998;37.212;2023-11-22T02:15:16;42443.75;;;-145.39;51.95
37078;BME280;22989;55.998;37.212;2023-11-22T02:17:42;42453.53;;;-145.39;52.07
37078;BME280;22989;55.998;37.212;2023-11-22T02:20:10;42453.53;;;-145.39;52.01
37078;BME280;22989;55.998;37.212;2023-11-22T02:22:44;42455.47;;;-145.39;52.13
37078;BME280;22989;55.998;37.212;2023-11-22T02:25:10;42473.03;;;-145.39;52.09
37078;BME280;22989;55.998;37.212;2023-11-22T02:27:35;42422.28;;;-145.39;51.93
37078;BME280;22989;55.998;37.212;2023-11-22T02:30:03;42418.38;;;-145.39;51.71
37078;BME280;22989;55.998;37.212;2023-11-22T02:32:31;42465.25;;;-145.39;51.84
37078;BME280;22989;55.998;37.212;2023-11-22T02:34:57;42467.19;;;-145.39;52.05
37078;BME280;22989;55.998;37.212;2023-11-22T02:37:23;42473.03;;;-145.39;52.22
37078;BME280;22989;55.998;37.212;2023-11-22T02:40:06;42475.00;;;-145.39;52.07
37078;BME280;22989;55.998;37.212;2023-11-22T02:42:35;42451.56;;;-145.39;52.07
37078;BME280;22989;55.998;37.212;2023-11-22T02:45:00;42428.13;;;-145.39;51.77
37078;BME280;22989;55.998;37.212;2023-11-22T02:47:27;42469.16;;;-145.39;51.96
37078;BME280;22989;55.998;37.212;2023-11-22T02:49:52;42437.91;;;-145.39;52.04
37078;BME280;22989;55.998;37.212;2023-11-22T02:52:20;42434.00;;;-145.39;51.82
37078;BME280;22989;55.998;37.212;2023-11-22T02:54:47;42447.66;;;-145.39;51.86
37078;BME280;22989;55.998;37.212;2023-11-22T02:57:13;42453.53;;;-145.39;52.00
37078;BME280;22989;55.998;37.212;2023-11-22T02:59:42;42445.72;;;-145.39;52.15
37078;BME280;22989;55.998;37.212;2023-11-22T03:02:08;42465.25;;;-145.39;51.93
37078;BME280;22989;55.998;37.212;2023-11-22T03:04:34;42475.00;;;-145.39;52.04
37078;BME280;22989;55.998;37.212;2023-11-22T03:07:00;42484.75;;;-145.39;51.90
37078;BME280;22989;55.998;37.212;2023-11-22T03:09:26;42428.13;;;-145.39;52.09
37078;BME280;22989;55.998;37.212;2023-11-22T03:11:52;42435.94;;;-145.39;52.12
37078;BME280;22989;55.998;37.212;2023-11-22T03:14:18;42455.47;;;-145.39;51.99
37078;BME280;22989;55.998;37.212;2023-11-22T03:16:45;42418.38;;;-145.39;51.85
37078;BME280;22989;55.998;37.212;2023-11-22T03:19:11;42467.19;;;-145.39;51.91
37078;BME280;22989;55.998;37.212;2023-11-22T03:21:39;42473.03;;;-145.39;52.17
37078;BME280;22989;55.998;37.212;2023-11-22T03:24:07;42435.94;;;-145.39;52.00
37078;BME280;22989;55.998;37.212;2023-11-22T03:26:34;42435.94;;;-145.39;51.95
37078;BME280;22989;55.998;37.212;2023-11-22T03:29:00;42441.81;;;-145.39;51.92
37078;BME280;22989;55.998;37.212;2023-11-22T03:31:29;42404.72;;;-145.39;52.13
37078;BME280;22989;55.998;37.212;2023-11-22T03:33:56;42461.34;;;-145.39;51.95
37078;BME280;22989;55.998;37.212;2023-11-22T03:36:22;42428.13;;;-145.39;52.17
37078;BME280;22989;55.998;37.212;2023-11-22T03:38:48;42430.09;;;-145.39;51.98
37078;BME280;22989;55.998;37.212;2023-11-22T03:41:15;42435.94;;;-145.39;52.04
37078;BME280;22989;55.998;37.212;2023-11-22T03:43:40;42465.25;;;-145.39;51.95
37078;BME280;22989;55.998;37.212;2023-11-22T03:46:06;42451.56;;;-145.39;52.06
37078;BME280;22989;55.998;37.212;2023-11-22T03:48:32;42457.44;;;-145.39;52.06
37078;BME280;22989;55.998;37.212;2023-11-22T03:50:59;42480.84;;;-145.39;52.21
37078;BME280;22989;55.998;37.212;2023-11-22T03:53:25;42473.03;;;-145.39;52.10
37078;BME280;22989;55.998;37.212;2023-11-22T03:55:52;42459.38;;;-145.39;52.16
37078;BME280;22989;55.998;37.212;2023-11-22T03:58:18;42443.75;;;-145.39;52.17
37078;BME280;22989;55.998;37.212;2023-11-22T04:00:44;42473.03;;;-145.39;52.11
37078;BME280;22989;55.998;37.212;2023-11-22T04:03:09;42492.56;;;-145.39;52.14
37078;BME280;22989;55.998;37.212;2023-11-22T04:05:35;42447.66;;;-145.39;52.00
37078;BME280;22989;55.998;37.212;2023-11-22T04:08:01;42476.94;;;-145.39;52.17
37078;BME280;22989;55.998;37.212;2023-11-22T04:10:27;42451.56;;;-145.39;52.02
37078;BME280;22989;55.998;37.212;2023-11-22T04:12:52;42449.63;;;-145.39;52.27
37078;BME280;22989;55.998;37.212;2023-11-22T04:15:18;42498.44;;;-145.39;51.89
37078;BME280;22989;55.998;37.212;2023-11-22T04:17:44;42478.91;;;-145.39;51.95
37078;BME280;22989;55.998;37.212;2023-11-22T04:20:10;42447.66;;;-145.39;52.15
37078;BME280;22989;55.998;37.212;2023-11-22T04:22:39;42459.38;;;-145.39;51.99
37078;BME280;22989;55.998;37.212;2023-11-22T04:25:05;42435.94;;;-145.39;52.23
37078;BME280;22989;55.998;37.212;2023-11-22T04:27:33;42476.94;;;-145.39;52.12
37078;BME280;22989;55.998;37.212;2023-11-22T04:29:58;42449.63;;;-145.39;52.20
37078;BME280;22989;55.998;37.212;2023-11-22T04:32:24;42445.72;;;-145.39;52.00
37078;BME280;22989;55.998;37.212;2023-11-22T04:34:50;42465.25;;;-145.39;51.98
37078;BME280;22989;55.998;37.212;2023-11-22T04:37:15;42445.72;;;-145.39;52.06
37078;BME280;22989;55.998;37.212;2023-11-22T04:39:41;42473.03;;;-145.39;51.89
37078;BME280;22989;55.998;37.212;2023-11-22T04:42:07;42492.56;;;-145.39;52.25
37078;BME280;22989;55.998;37.212;2023-11-22T04:44:32;42490.63;;;-145.39;51.68
37078;BME280;22989;55.998;37.212;2023-11-22T04:46:58;42467.19;;;-145.39;51.93
37078;BME280;22989;55.998;37.212;2023-11-22T04:49:26;42510.16;;;-145.39;51.98
37078;BME280;22989;55.998;37.212;2023-11-22T04:51:52;42498.44;;;-145.39;51.83
37078;BME280;22989;55.998;37.212;2023-11-22T04:54:18;42512.09;;;-145.39;51.68
37078;BME280;22989;55.998;37.212;2023-11-22T04:56:44;42547.25;;;-145.39;51.80
37078;BME280;22989;55.998;37.212;2023-11-22T04:59:10;42625.34;;;-145.39;51.82
37078;BME280;22989;55.998;37.212;2023-11-22T05:01:36;42668.31;;;-145.39;51.67
37078;BME280;22989;55.998;37.212;2023-11-22T05:04:01;42808.91;;;-145.39;51.56
37078;BME280;22989;55.998;37.212;2023-11-22T05:06:28;42959.28;;;-145.39;51.46
37078;BME280;22989;55.998;37.212;2023-11-22T05:08:54;43103.78;;;-145.39;51.73
37078;BME280;22989;55.998;37.212;2023-11-22T05:11:21;43244.38;;;-145.39;51.77
37078;BME280;22989;55.998;37.212;2023-11-22T05:13:47;43246.34;;;-145.39;51.80
37078;BME280;22989;55.998;37.212;2023-11-22T05:16:13;43363.53;;;-145.39;51.74
37078;BME280;22989;55.998;37.212;2023-11-22T05:18:38;43400.63;;;-145.39;52.02
37078;BME280;22989;55.998;37.212;2023-11-22T05:21:04;43443.59;;;-145.39;52.04
37078;BME280;22989;55.998;37.212;2023-11-22T05:23:31;43508.03;;;-145.39;51.90
37078;BME280;22989;55.998;37.212;2023-11-22T05:25:59;43556.88;;;-145.39;52.01
37078;BME280;22989;55.998;37.212;2023-11-22T05:28:29;43552.97;;;-145.39;52.14
37078;BME280;22989;55.998;37.212;2023-11-22T05:30:54;43613.50;;;-145.39;52.29
37078;BME280;22989;55.998;37.212;2023-11-22T05:33:20;43756.09;;;-145.39;52.26
37078;BME280;22989;55.998;37.212;2023-11-22T05:35:46;43879.16;;;-145.39;52.55
37078;BME280;22989;55.998;37.212;2023-11-22T05:38:11;43918.22;;;-145.39;52.44
37078;BME280;22989;55.998;37.212;2023-11-22T05:40:37;43912.34;;;-145.39;52.46
37078;BME280;22989;55.998;37.212;2023-11-22T05:43:04;43859.63;;;-145.39;52.39
37078;BME280;22989;55.998;37.212;2023-11-22T05:45:30;43918.22;;;-145.39;52.37
37078;BME280;22989;55.998;37.212;2023-11-22T05:47:55;43969.00;;;-145.39;52.11
37078;BME280;22989;55.998;37.212;2023-11-22T05:50:21;43959.22;;;-145.39;52.24
37078;BME280;22989;55.998;37.212;2023-11-22T05:52:47;44054.94;;;-145.39;52.19
37078;BME280;22989;55.998;37.212;2023-11-22T05:55:13;44076.44;;;-145.39;52.15
37078;BME280;22989;55.998;37.212;2023-11-22T05:57:40;44217.06;;;-145.39;52.12
37078;BME280;22989;55.998;37.212;2023-11-22T06:00:07;44070.56;;;-145.39;52.06
37078;BME280;22989;55.998;37.212;2023-11-22T06:02:33;43959.22;;;-145.39;52.27
37078;BME280;22989;55.998;37.212;2023-11-22T06:04:58;44094.00;;;-145.39;52.18
37078;BME280;22989;55.998;37.212;2023-11-22T06:07:26;44433.91;;;-145.39;52.12
37078;BME280;22989;55.998;37.212;2023-11-22T06:09:52;44482.75;;;-145.39;52.34
37078;BME280;22989;55.998;37.212;2023-11-22T06:12:18;44474.94;;;-145.39;52.42
37078;BME280;22989;55.998;37.212;2023-11-22T06:14:46;44517.91;;;-145.39;52.31
37078;BME280;22989;55.998;37.212;2023-11-22T06:17:12;44484.72;;;-145.39;52.37
37078;BME280;22989;55.998;37.212;2023-11-22T06:19:38;44570.66;;;-145.39;52.42
37078;BME280;22989;55.998;37.212;2023-11-22T06:22:04;44576.53;;;-145.39;52.32
37078;BME280;22989;55.998;37.212;2023-11-22T06:24:29;44498.38;;;-145.39;52.34
37078;BME280;22989;55.998;37.212;2023-11-22T06:26:56;44545.25;;;-145.39;52.55
37078;BME280;22989;55.998;37.212;2023-11-22T06:29:22;44553.09;;;-145.39;52.32
37078;BME280;22989;55.998;37.212;2023-11-22T06:31:47;44594.09;;;-145.39;52.11
37078;BME280;22989;55.998;37.212;2023-11-22T06:34:13;44713.28;;;-145.39;52.39
37078;BME280;22989;55.998;37.212;2023-11-22T06:36:39;44740.63;;;-145.39;52.47
37078;BME280;22989;55.998;37.212;2023-11-22T06:39:04;44760.16;;;-145.39;52.27
37078;BME280;22989;55.998;37.212;2023-11-22T06:41:31;44728.91;;;-145.39;52.34
37078;BME280;22989;55.998;37.212;2023-11-22T06:43:57;44783.63;;;-145.39;52.29
37078;BME280;22989;55.998;37.212;2023-11-22T06:46:23;44683.97;;;-145.39;52.22
37078;BME280;22989;55.998;37.212;2023-11-22T06:48:49;44658.56;;;-145.39;51.95
37078;BME280;22989;55.998;37.212;2023-11-22T06:51:15;44793.38;;;-145.39;51.99
37078;BME280;22989;55.998;37.212;2023-11-22T06:53:41;44814.88;;;-145.39;52.24
37078;BME280;22989;55.998;37.212;2023-11-22T06:56:07;44779.72;;;-145.39;51.98
37078;BME280;22989;55.998;37.212;2023-11-22T06:58:32;44721.09;;;-145.39;51.90
37078;BME280;22989;55.998;37.212;2023-11-22T07:00:58;44697.66;;;-145.39;51.87
37078;BME280;22989;55.998;37.212;2023-11-22T07:03:23;44695.69;;;-145.39;52.00
37078;BME280;22989;55.998;37.212;2023-11-22T07:05:49;44631.22;;;-145.39;51.88
37078;BME280;22989;55.998;37.212;2023-11-22T07:08:15;44656.63;;;-145.39;51.78
37078;BME280;22989;55.998;37.212;2023-11-22T07:10:45;44736.72;;;-145.39;51.68
37078;BME280;22989;55.998;37.212;2023-11-22T07:13:11;44676.16;;;-145.39;51.80
37078;BME280;22989;55.998;37.212;2023-11-22T07:15:38;44807.06;;;-145.39;51.84
37078;BME280;22989;55.998;37.212;2023-11-22T07:18:04;44744.53;;;-145.39;51.78
37078;BME280;22989;55.998;37.212;2023-11-22T07:20:30;44705.47;;;-145.39;51.77
37078;BME280;22989;55.998;37.212;2023-11-22T07:22:56;44752.34;;;-145.39;51.59
37078;BME280;22989;55.998;37.212;2023-11-22T07:25:23;44979.00;;;-145.39;51.45
37078;BME280;22989;55.998;37.212;2023-11-22T07:27:52;44926.22;;;-145.39;51.49
37078;BME280;22989;55.998;37.212;2023-11-22T07:30:20;44951.63;;;-145.39;51.43
37078;BME280;22989;55.998;37.212;2023-11-22T07:32:50;44846.13;;;-145.39;51.37
37078;BME280;22989;55.998;37.212;2023-11-22T07:35:17;44885.22;;;-145.39;51.42
37078;BME280;22989;55.998;37.212;2023-11-22T07:37:48;44791.44;;;-145.39;51.19
37078;BME280;22989;55.998;37.212;2023-11-22T07:40:17;44814.88;;;-145.39;51.10
37078;BME280;22989;55.998;37.212;2023-11-22T07:42:44;44838.31;;;-145.39;51.10
37078;BME280;22989;55.998;37.212;2023-11-22T07:45:10;44924.28;;;-145.39;51.05
37078;BME280;22989;55.998;37.212;2023-11-22T07:47:39;44869.56;;;-145.39;51.10
37078;BME280;22989;55.998;37.212;2023-11-22T07:50:09;44803.16;;;-145.39;50.88
37078;BME280;22989;55.998;37.212;2023-11-22T07:52:37;44816.81;;;-145.39;50.88
37078;BME280;22989;55.998;37.212;2023-11-22T07:55:04;44785.56;;;-145.39;50.87
37078;BME280;22989;55.998;37.212;2023-11-22T07:57:37;44830.50;;;-145.39;50.75
37078;BME280;22989;55.998;37.212;2023-11-22T08:00:04;44760.16;;;-145.39;50.41
37078;BME280;22989;55.998;37.212;2023-11-22T08:02:37;44787.53;;;-145.39;50.37
37078;BME280;22989;55.998;37.212;2023-11-22T08:05:07;44818.78;;;-145.39;50.43
37078;BME280;22989;55.998;37.212;2023-11-22T08:07:38;44848.09;;;-145.39;50.17
37078;BME280;22989;55.998;37.212;2023-11-22T08:10:07;44881.31;;;-145.39;50.20
37078;BME280;22989;55.998;37.212;2023-11-22T08:12:48;44865.66;;;-145.39;49.88
37078;BME280;22989;55.998;37.212;2023-11-22T08:15:16;44775.78;;;-145.39;49.63
37078;BME280;22989;55.998;37.212;2023-11-22T08:17:45;44748.44;;;-145.39;49.90
37078;BME280;22989;55.998;37.212;2023-11-22T08:20:10;44767.97;;;-145.39;49.97
37078;BME280;22989;55.998;37.212;2023-11-22T08:22:39;44801.19;;;-145.39;49.88
37078;BME280;22989;55.998;37.212;2023-11-22T08:25:08;44762.13;;;-145.39;49.95
37078;BME280;22989;55.998;37.212;2023-11-22T08:27:38;44730.88;;;-145.39;49.84
37078;BME280;22989;55.998;37.212;2023-11-22T08:30:05;44642.94;;;-145.39;49.92
37078;BME280;22989;55.998;37.212;2023-11-22T08:32:31;44656.63;;;-145.39;49.80
37078;BME280;22989;55.998;37.212;2023-11-22T08:34:57;44553.09;;;-145.39;49.64
37078;BME280;22989;55.998;37.212;2023-11-22T08:37:24;44584.34;;;-145.39;49.47
37078;BME280;22989;55.998;37.212;2023-11-22T08:39:49;44680.06;;;-145.39;49.52
37078;BME280;22989;55.998;37.212;2023-11-22T08:42:15;44746.50;;;-145.39;49.55
37078;BME280;22989;55.998;37.212;2023-11-22T08:44:41;44691.78;;;-145.39;49.51
37078;BME280;22989;55.998;37.212;2023-11-22T08:47:07;44754.31;;;-145.39;49.29
37078;BME280;22989;55.998;37.212;2023-11-22T08:49:34;44672.25;;;-145.39;49.48
37078;BME280;22989;55.998;37.212;2023-11-22T08:51:59;44803.16;;;-145.39;49.24
37078;BME280;22989;55.998;37.212;2023-11-22T08:54:26;44859.81;;;-145.39;49.58
37078;BME280;22989;55.998;37.212;2023-11-22T08:56:55;44943.81;;;-145.39;49.28
37078;BME280;22989;55.998;37.212;2023-11-22T08:59:25;44865.66;;;-145.39;49.19
37078;BME280;22989;55.998;37.212;2023-11-22T09:01:52;44814.88;;;-145.39;49.12
37078;BME280;22989;55.998;37.212;2023-11-22T09:04:18;44799.25;;;-145.39;49.29
37078;BME280;22989;55.998;37.212;2023-11-22T09:06:44;44779.72;;;-145.39;49.21
37078;BME280;22989;55.998;37.212;2023-11-22T09:09:09;44740.63;;;-145.39;49.26
37078;BME280;22989;55.998;37.212;2023-11-22T09:11:41;44711.31;;;-145.39;49.01
37078;BME280;22989;55.998;37.212;2023-11-22T09:14:06;44726.94;;;-145.39;49.11
37078;BME280;22989;55.998;37.212;2023-11-22T09:16:37;44717.19;;;-145.39;49.06
37078;BME280;22989;55.998;37.212;2023-11-22T09:19:04;44742.59;;;-145.39;49.21
37078;BME280;22989;55.998;37.212;2023-11-22T09:21:32;44740.63;;;-145.39;49.10
37078;BME280;22989;55.998;37.212;2023-11-22T09:23:58;44648.81;;;-145.39;49.16
37078;BME280;22989;55.998;37.212;2023-11-22T09:26:24;44574.56;;;-145.39;49.24
37078;BME280;22989;55.998;37.212;2023-11-22T09:28:50;44590.19;;;-145.39;49.00
37078;BME280;22989;55.998;37.212;2023-11-22T09:31:16;44607.78;;;-145.39;49.17
37078;BME280;22989;55.998;37.212;2023-11-22T09:33:46;44615.59;;;-145.39;49.29
37078;BME280;22989;55.998;37.212;2023-11-22T09:36:12;44621.47;;;-145.39;49.11
37078;BME280;22989;55.998;37.212;2023-11-22T09:38:38;44633.19;;;-145.39;49.19
37078;BME280;22989;55.998;37.212;2023-11-22T09:41:04;44609.75;;;-145.39;49.33
37078;BME280;22989;55.998;37.212;2023-11-22T09:43:30;44654.66;;;-145.39;49.19
37078;BME280;22989;55.998;37.212;2023-11-22T09:45:56;44642.94;;;-145.39;49.01
37078;BME280;22989;55.998;37.212;2023-11-22T09:48:23;44609.75;;;-145.39;49.12
37078;BME280;22989;55.998;37.212;2023-11-22T09:50:57;44631.22;;;-145.39;49.27
37078;BME280;22989;55.998;37.212;2023-11-22T09:56:09;44613.66;;;-145.39;49.08
37078;BME280;22989;55.998;37.212;2023-11-22T09:58:41;44599.97;;;-145.39;49.26
37078;BME280;22989;55.998;37.212;2023-11-22T10:01:14;44592.16;;;-145.39;49.05
37078;BME280;22989;55.998;37.212;2023-11-22T10:03:41;44617.56;;;-145.39;49.19
37078;BME280;22989;55.998;37.212;2023-11-22T10:06:07;44609.75;;;-145.39;49.05
37078;BME280;22989;55.998;37.212;2023-11-22T10:08:33;44543.31;;;-145.39;48.96
37078;BME280;22989;55.998;37.212;2023-11-22T10:11:01;44599.97;;;-145.39;48.93
37078;BME280;22989;55.998;37.212;2023-11-22T10:13:27;44623.41;;;-145.39;49.15
37078;BME280;22989;55.998;37.212;2023-11-22T10:15:53;44615.59;;;-145.39;48.96
37078;BME280;22989;55.998;37.212;2023-11-22T10:18:20;44627.31;;;-145.39;49.01
37078;BME280;22989;55.998;37.212;2023-11-22T10:20:47;44637.09;;;-145.39;48.79
37078;BME280;22989;55.998;37.212;2023-11-22T10:23:17;44625.38;;;-145.39;48.95
37078;BME280;22989;55.998;37.212;2023-11-22T10:25:44;44664.44;;;-145.39;48.92
37078;BME280;22989;55.998;37.212;2023-11-22T10:28:10;44678.13;;;-145.39;48.95
37078;BME280;22989;55.998;37.212;2023-11-22T10:30:36;44611.69;;;-145.39;48.73
37078;BME280;22989;55.998;37.212;2023-11-22T10:33:04;44656.63;;;-145.39;48.77
37078;BME280;22989;55.998;37.212;2023-11-22T10:35:30;44625.38;;;-145.39;48.67
37078;BME280;22989;55.998;37.212;2023-11-22T10:37:56;44596.06;;;-145.39;48.61
37078;BME280;22989;55.998;37.212;2023-11-22T10:40:22;44635.13;;;-145.39;48.38
37078;BME280;22989;55.998;37.212;2023-11-22T10:42:49;44596.06;;;-145.39;48.25
37078;BME280;22989;55.998;37.212;2023-11-22T10:45:17;44578.47;;;-145.39;48.38
37078;BME280;22989;55.998;37.212;2023-11-22T10:47:45;44605.81;;;-145.39;48.51
37078;BME280;22989;55.998;37.212;2023-11-22T10:50:11;44574.56;;;-145.39;48.35
37078;BME280;22989;55.998;37.212;2023-11-22T10:52:41;44603.88;;;-145.39;48.35
37078;BME280;22989;55.998;37.212;2023-11-22T10:55:08;44592.16;;;-145.39;48.30
37078;BME280;22989;55.998;37.212;2023-11-22T10:57:41;44592.16;;;-145.39;48.53
37078;BME280;22989;55.998;37.212;2023-11-22T11:00:10;44596.06;;;-145.39;48.25
37078;BME280;22989;55.998;37.212;2023-11-22T11:02:41;44592.16;;;-145.39;48.45
37078;BME280;22989;55.998;37.212;2023-11-22T11:05:15;44582.38;;;-145.39;48.03
37078;BME280;22989;55.998;37.212;2023-11-22T11:07:54;44553.09;;;-145.39;48.13
37078;BME280;22989;55.998;37.212;2023-11-22T11:10:21;44517.91;;;-145.39;48.38
37078;BME280;22989;55.998;37.212;2023-11-22T11:12:48;44553.09;;;-145.39;48.10
37078;BME280;22989;55.998;37.212;2023-11-22T11:15:15;44531.59;;;-145.39;48.21
37078;BME280;22989;55.998;37.212;2023-11-22T11:17:43;44607.78;;;-145.39;48.11
37078;BME280;22989;55.998;37.212;2023-11-22T11:20:11;44588.25;;;-145.39;47.81
37078;BME280;22989;55.998;37.212;2023-11-22T11:22:39;44553.09;;;-145.39;48.21
37078;BME280;22989;55.998;37.212;2023-11-22T11:25:05;44527.69;;;-145.39;48.19
37078;BME280;22989;55.998;37.212;2023-11-22T11:27:35;44551.13;;;-145.39;48.05
37078;BME280;22989;55.998;37.212;2023-11-22T11:32:50;44519.88;;;-145.39;48.06
37078;BME280;22989;55.998;37.212;2023-11-22T11:35:17;44457.34;;;-145.39;47.90
37078;BME280;22989;55.998;37.212;2023-11-22T11:37:46;44504.25;;;-145.39;47.99
37078;BME280;22989;55.998;37.212;2023-11-22T11:40:34;44525.72;;;-145.39;47.92
37078;BME280;22989;55.998;37.212;2023-11-22T11:43:00;44441.72;;;-145.39;47.89
37078;BME280;22989;55.998;37.212;2023-11-22T11:45:27;44476.88;;;-145.39;47.61
37078;BME280;22989;55.998;37.212;2023-11-22T11:47:53;44478.84;;;-145.39;47.65
37078;BME280;22989;55.998;37.212;2023-11-22T11:50:20;44457.34;;;-145.39;47.84
37078;BME280;22989;55.998;37.212;2023-11-22T11:52:47;44500.34;;;-145.39;47.90
37078;BME280;22989;55.998;37.212;2023-11-22T11:55:13;44441.72;;;-145.39;47.86
37078;BME280;22989;55.998;37.212;2023-11-22T11:57:39;44369.44;;;-145.39;47.80
37078;BME280;22989;55.998;37.212;2023-11-22T12:00:08;44316.69;;;-145.39;47.79
37078;BME280;22989;55.998;37.212;2023-11-22T12:02:37;44310.84;;;-145.39;47.92
37078;BME280;22989;55.998;37.212;2023-11-22T12:05:03;44330.38;;;-145.39;47.74
37078;BME280;22989;55.998;37.212;2023-11-22T12:07:37;44285.44;;;-145.39;47.96
37078;BME280;22989;55.998;37.212;2023-11-22T12:10:04;44217.06;;;-145.39;47.77
37078;BME280;22989;55.998;37.212;2023-11-22T12:12:32;44174.09;;;-145.39;47.89
37078;BME280;22989;55.998;37.212;2023-11-22T12:14:58;44205.34;;;-145.39;47.92
37078;BME280;22989;55.998;37.212;2023-11-22T12:17:25;44150.66;;;-145.39;47.85
37078;BME280;22989;55.998;37.212;2023-11-22T12:19:52;44146.75;;;-145.39;47.92
37078;BME280;22989;55.998;37.212;2023-11-22T12:22:19;44140.91;;;-145.39;47.93
37078;BME280;22989;55.998;37.212;2023-11-22T12:24:46;44092.06;;;-145.39;47.79
37078;BME280;22989;55.998;37.212;2023-11-22T12:27:11;44053.00;;;-145.39;47.84
37078;BME280;22989;55.998;37.212;2023-11-22T12:29:37;44025.66;;;-145.39;48.01
37078;BME280;22989;55.998;37.212;2023-11-22T12:32:05;43949.47;;;-145.39;48.00
37078;BME280;22989;55.998;37.212;2023-11-22T12:34:32;43953.38;;;-145.39;47.93